Аэропорт: Курумоч. Самара

ICAO: UWWW

METAR:
2020-08-12 07:00:00
UWWW 120700Z 32002MPS 260V040 CAVOK 23/08 Q1010 R15/CLRD60 NOSIG RMK QFE746/0995
METAR:
2020-08-12 04:54:00
TAF UWWW 120454Z 1206/1306 11003G09MPS 9999 BKN020 TX23/1211Z TN14/1301Z